Time,TemperatureF,DewpointF,PressureIn,WindDirection,WindDirectionDegrees,WindSpeedMPH,WindSpeedGustMPH,Humidity,HourlyPrecipIn,Conditions,Clouds,dailyrainin,SolarRadiationWatts/m^2,SoftwareType,DateUTC
2013-06-10 00:00:00,61.1,59.4,29.80,NNE,22,0.0,2.0,94,0.00,,---,0.00,0.00,VWS V14.00,2013-06-10 05:00:00,
2013-06-10 00:30:00,60.5,58.8,29.79,NNE,22,0.0,2.0,94,0.00,,---,0.00,0.00,VWS V14.00,2013-06-10 05:30:00,
2013-06-10 01:00:00,59.5,57.8,29.79,NNE,22,0.0,0.0,94,0.00,,---,0.00,0.00,VWS V14.00,2013-06-10 06:00:00,
2013-06-10 01:30:00,58.2,56.8,29.79,NNE,22,0.0,0.0,95,0.00,,---,0.00,0.00,VWS V14.00,2013-06-10 06:30:00,
2013-06-10 02:00:00,57.7,56.6,29.78,NNE,22,0.0,0.0,96,0.00,,---,0.00,0.00,VWS V14.00,2013-06-10 07:00:00,
2013-06-10 02:30:00,58.7,57.8,29.79,NNE,22,0.0,0.0,97,0.00,,---,0.00,0.00,VWS V14.00,2013-06-10 07:30:00,
2013-06-10 03:00:00,59.4,58.8,29.78,NNE,22,0.0,0.0,98,0.00,,---,0.00,0.00,VWS V14.00,2013-06-10 08:00:00,
2013-06-10 03:30:00,60.0,59.4,29.78,NNE,22,0.0,0.0,98,0.00,,---,0.00,0.00,VWS V14.00,2013-06-10 08:30:00,
2013-06-10 04:00:00,60.2,59.6,29.78,NNE,22,0.0,0.0,98,0.00,,---,0.00,0.00,VWS V14.00,2013-06-10 09:00:00,
2013-06-10 04:30:00,60.2,59.6,29.78,NNE,22,0.0,0.0,98,0.00,,---,0.00,0.00,VWS V14.00,2013-06-10 09:30:00,
2013-06-10 05:00:00,59.7,58.8,29.78,NNE,22,0.0,0.0,97,0.00,,---,0.00,0.00,VWS V14.00,2013-06-10 10:00:00,
2013-06-10 05:30:00,59.5,58.7,29.78,NNE,22,0.0,0.0,97,0.00,,---,0.00,0.00,VWS V14.00,2013-06-10 10:30:00,
2013-06-10 06:00:00,59.4,58.5,29.79,NNE,22,0.0,0.0,97,0.00,,---,0.00,6.00,VWS V14.00,2013-06-10 11:00:00,
2013-06-10 06:30:00,59.9,59.3,29.79,NNE,22,0.0,0.0,98,0.00,,---,0.00,19.00,VWS V14.00,2013-06-10 11:30:00,
2013-06-10 07:00:00,60.9,60.3,29.79,SE,135,0.0,2.0,98,0.00,,---,0.00,41.00,VWS V14.00,2013-06-10 12:00:00,
2013-06-10 07:30:00,61.2,60.6,29.79,SE,135,0.0,1.0,98,0.00,,---,0.00,57.00,VWS V14.00,2013-06-10 12:30:00,
2013-06-10 08:00:00,61.3,60.7,29.80,SE,135,0.0,2.0,98,0.00,,---,0.00,68.00,VWS V14.00,2013-06-10 13:00:00,
2013-06-10 08:30:00,61.7,61.1,29.81,North,0,0.0,2.0,98,0.00,,---,0.00,68.00,VWS V14.00,2013-06-10 13:30:00,
2013-06-10 09:00:00,62.2,61.3,29.83,North,0,0.0,3.0,97,0.00,,---,0.00,62.00,VWS V14.00,2013-06-10 14:00:00,
2013-06-10 09:30:00,62.8,61.7,29.83,NNW,338,0.0,4.0,96,0.00,,---,0.00,118.00,VWS V14.00,2013-06-10 14:30:00,
2013-06-10 10:00:00,64.2,62.1,29.83,NNW,338,1.0,5.0,93,0.00,,---,0.00,287.00,VWS V14.00,2013-06-10 15:00:00,
2013-06-10 10:30:00,66.0,63.0,29.82,NNW,338,2.0,6.0,90,0.00,,---,0.00,392.00,VWS V14.00,2013-06-10 15:30:00,
2013-06-10 11:00:00,67.1,62.5,29.82,NW,315,1.0,6.0,85,0.00,,---,0.00,445.00,VWS V14.00,2013-06-10 16:00:00,
2013-06-10 11:30:00,67.6,62.3,29.83,NW,315,1.0,6.0,83,0.00,,---,0.00,380.00,VWS V14.00,2013-06-10 16:30:00,
2013-06-10 12:00:00,67.2,61.9,29.82,NW,315,2.0,9.0,83,0.00,,---,0.00,322.00,VWS V14.00,2013-06-10 17:00:00,
2013-06-10 12:30:00,67.8,62.5,29.83,NNW,338,2.0,6.0,83,0.00,,---,0.00,415.00,VWS V14.00,2013-06-10 17:30:00,
2013-06-10 13:00:00,68.3,62.2,29.82,NNW,338,1.0,6.0,81,0.00,,---,0.00,445.00,VWS V14.00,2013-06-10 18:00:00,
2013-06-10 13:30:00,67.7,62.4,29.82,North,0,1.0,6.0,83,0.00,,---,0.00,337.00,VWS V14.00,2013-06-10 18:30:00,
2013-06-10 14:00:00,68.7,63.0,29.82,NNW,338,1.0,4.0,82,0.00,,---,0.00,325.00,VWS V14.00,2013-06-10 19:00:00,
2013-06-10 14:30:00,70.4,63.2,29.82,SSE,158,0.0,3.0,78,0.00,,---,0.00,445.00,VWS V14.00,2013-06-10 19:30:00,
2013-06-10 15:00:00,71.4,63.8,29.82,NNW,338,0.0,5.0,77,0.00,,---,0.00,417.00,VWS V14.00,2013-06-10 20:00:00,
2013-06-10 15:30:00,72.0,64.4,29.81,North,0,0.0,4.0,77,0.00,,---,0.00,444.00,VWS V14.00,2013-06-10 20:30:00,
2013-06-10 16:00:00,73.3,64.5,29.81,East,90,0.0,3.0,74,0.00,,---,0.00,619.00,VWS V14.00,2013-06-10 21:00:00,
2013-06-10 16:30:00,72.3,63.6,29.81,NW,315,0.0,5.0,74,0.00,,---,0.00,217.00,VWS V14.00,2013-06-10 21:30:00,
2013-06-10 17:00:00,71.3,63.0,29.81,SE,135,0.0,6.0,75,0.00,,---,0.00,188.00,VWS V14.00,2013-06-10 22:00:00,
2013-06-10 17:30:00,71.2,62.9,29.81,SE,135,0.0,4.0,75,0.00,,---,0.00,113.00,VWS V14.00,2013-06-10 22:30:00,
2013-06-10 18:00:00,69.9,63.1,29.81,SE,135,0.0,1.0,79,0.00,,---,0.00,114.00,VWS V14.00,2013-06-10 23:00:00,
2013-06-10 18:30:00,68.6,62.9,29.81,SE,135,0.0,1.0,82,0.00,,---,0.00,78.00,VWS V14.00,2013-06-10 23:30:00,
2013-06-10 19:00:00,69.1,62.7,29.81,SE,135,0.0,1.0,80,0.00,,---,0.00,73.00,VWS V14.00,2013-06-11 00:00:00,
2013-06-10 19:30:00,69.1,62.3,29.80,SE,135,0.0,4.0,79,0.00,,---,0.00,43.00,VWS V14.00,2013-06-11 00:30:00,
2013-06-10 20:00:00,67.9,61.9,29.80,SSE,158,0.0,2.0,81,0.00,,---,0.00,30.00,VWS V14.00,2013-06-11 01:00:00,
2013-06-10 20:30:00,66.2,61.2,29.80,SSE,158,0.0,0.0,84,0.00,,---,0.00,19.00,VWS V14.00,2013-06-11 01:30:00,
2013-06-10 21:00:00,64.5,60.5,29.80,SSE,158,0.0,0.0,87,0.00,,---,0.00,9.00,VWS V14.00,2013-06-11 02:00:00,
2013-06-10 21:30:00,62.5,59.5,29.80,SSE,158,0.0,0.0,90,0.00,,---,0.00,1.00,VWS V14.00,2013-06-11 02:30:00,
2013-06-10 22:00:00,61.1,58.8,29.81,SSE,158,0.0,0.0,92,0.00,,---,0.00,0.00,VWS V14.00,2013-06-11 03:00:00,
2013-06-10 22:30:00,59.8,57.8,29.82,SSE,158,0.0,0.0,93,0.00,,---,0.00,0.00,VWS V14.00,2013-06-11 03:30:00,
2013-06-10 23:00:00,58.7,57.0,29.82,SSE,158,0.0,0.0,94,0.00,,---,0.00,0.00,VWS V14.00,2013-06-11 04:00:00,
2013-06-10 23:30:00,57.5,55.8,29.82,SSE,158,0.0,0.0,94,0.00,,---,0.00,0.00,VWS V14.00,2013-06-11 04:30:00,